createdAt,value
2018-07-31T00:02:12.759Z,23.30
2018-07-31T00:04:41.032Z,23.20
2018-07-31T00:07:09.245Z,23.30
2018-07-31T00:09:37.621Z,23.30
2018-07-31T00:12:05.846Z,23.30
2018-07-31T00:14:34.076Z,23.20
2018-07-31T00:17:02.341Z,23.20
2018-07-31T00:19:30.561Z,23.10
2018-07-31T00:21:58.797Z,23.10
2018-07-31T00:24:27.047Z,23.10
2018-07-31T00:26:55.374Z,23.10
2018-07-31T00:29:23.590Z,23.10
2018-07-31T00:31:52.317Z,23.10
2018-07-31T00:34:20.516Z,23.00
2018-07-31T00:36:48.830Z,22.80
2018-07-31T00:39:17.053Z,22.80
2018-07-31T00:41:45.292Z,22.70
2018-07-31T00:44:13.541Z,22.80
2018-07-31T00:46:42.196Z,22.70
2018-07-31T00:49:10.428Z,22.70
2018-07-31T00:51:38.674Z,22.70
2018-07-31T00:54:06.888Z,22.60
2018-07-31T00:56:35.122Z,22.60
2018-07-31T00:59:03.335Z,22.60
2018-07-31T01:01:31.572Z,22.60
2018-07-31T01:03:59.789Z,22.50
2018-07-31T01:06:32.552Z,22.40
2018-07-31T01:09:00.828Z,22.30
2018-07-31T01:11:29.071Z,22.40
2018-07-31T01:13:57.294Z,22.40
2018-07-31T01:16:25.699Z,22.40
2018-07-31T01:18:53.944Z,22.40
2018-07-31T01:21:22.162Z,22.30
2018-07-31T01:23:50.482Z,22.20
2018-07-31T01:26:18.698Z,22.10
2018-07-31T01:28:46.915Z,22.10
2018-07-31T01:31:15.145Z,22.00
2018-07-31T01:33:43.380Z,22.10
2018-07-31T01:36:11.622Z,22.10
2018-07-31T01:38:39.856Z,22.00
2018-07-31T01:41:08.094Z,22.00
2018-07-31T01:43:36.309Z,22.00
2018-07-31T01:46:04.619Z,22.00
2018-07-31T01:48:32.771Z,22.00
2018-07-31T01:51:01.018Z,22.00
2018-07-31T01:53:29.223Z,21.90
2018-07-31T01:55:57.461Z,21.90
2018-07-31T01:58:25.658Z,21.90
2018-07-31T02:00:54.041Z,21.90
2018-07-31T02:03:22.230Z,21.90
2018-07-31T02:05:50.524Z,21.90
2018-07-31T02:08:18.750Z,21.90
2018-07-31T02:10:48.420Z,21.80
2018-07-31T02:15:45.165Z,21.80
2018-07-31T02:20:41.601Z,21.80
2018-07-31T02:23:11.030Z,21.80
2018-07-31T02:25:39.802Z,21.80
2018-07-31T02:28:08.168Z,21.80
2018-07-31T02:30:36.403Z,21.70
2018-07-31T02:33:04.786Z,21.70
2018-07-31T02:35:32.967Z,21.70
2018-07-31T02:38:01.245Z,21.70
2018-07-31T02:40:29.503Z,21.70
2018-07-31T02:42:57.772Z,21.70
2018-07-31T02:45:26.113Z,21.70
2018-07-31T02:47:54.364Z,21.70
2018-07-31T02:50:22.601Z,21.70
2018-07-31T02:52:50.882Z,21.70
2018-07-31T02:55:19.085Z,21.70
2018-07-31T02:57:47.366Z,21.70
2018-07-31T03:00:15.621Z,21.60
2018-07-31T03:02:43.819Z,21.50
2018-07-31T03:05:12.529Z,21.50
2018-07-31T03:07:41.230Z,21.40
2018-07-31T03:10:10.517Z,21.40
2018-07-31T03:12:38.764Z,21.30
2018-07-31T03:15:07.986Z,21.40
2018-07-31T03:17:36.253Z,21.40
2018-07-31T03:20:04.618Z,21.40
2018-07-31T03:22:32.906Z,21.50
2018-07-31T03:25:01.119Z,21.50
2018-07-31T03:27:29.398Z,21.60
2018-07-31T03:29:57.865Z,21.60
2018-07-31T03:32:26.093Z,21.60
2018-07-31T03:34:54.379Z,21.60
2018-07-31T03:37:22.683Z,21.60
2018-07-31T03:39:50.959Z,21.60
2018-07-31T03:42:19.133Z,21.60
2018-07-31T03:44:47.449Z,21.60
2018-07-31T03:47:15.656Z,21.60
2018-07-31T03:49:43.925Z,21.60
2018-07-31T03:52:12.343Z,21.60
2018-07-31T03:54:40.566Z,21.60
2018-07-31T03:57:08.814Z,21.70
2018-07-31T03:59:37.030Z,21.70
2018-07-31T04:02:05.274Z,21.60
2018-07-31T04:04:33.508Z,21.60
2018-07-31T04:07:01.697Z,21.50
2018-07-31T04:09:29.909Z,21.50
2018-07-31T04:11:58.125Z,21.60
2018-07-31T04:14:26.508Z,21.60
2018-07-31T04:16:54.756Z,21.60
2018-07-31T04:19:22.929Z,21.70
2018-07-31T04:21:51.140Z,21.60
2018-07-31T04:24:19.997Z,21.60
2018-07-31T04:26:48.226Z,21.70
2018-07-31T04:29:16.762Z,21.70
2018-07-31T04:31:45.005Z,21.80
2018-07-31T04:34:13.222Z,21.80
2018-07-31T04:36:41.670Z,21.80
2018-07-31T04:39:11.548Z,21.90
2018-07-31T04:41:39.726Z,22.00
2018-07-31T04:44:07.997Z,22.10
2018-07-31T04:46:36.542Z,22.00
2018-07-31T04:49:04.818Z,22.10
2018-07-31T04:51:33.069Z,22.20
2018-07-31T04:54:01.538Z,22.20
2018-07-31T04:56:29.723Z,22.20
2018-07-31T04:58:58.277Z,22.10
2018-07-31T05:01:26.504Z,22.10
2018-07-31T05:03:54.709Z,22.20
2018-07-31T05:06:22.933Z,22.30
2018-07-31T05:08:51.125Z,22.30
2018-07-31T05:11:19.322Z,22.40
2018-07-31T05:13:47.553Z,22.40
2018-07-31T05:16:15.758Z,22.30
2018-07-31T05:18:43.994Z,22.40
2018-07-31T05:21:12.254Z,22.40
2018-07-31T05:23:40.555Z,22.40
2018-07-31T05:26:08.782Z,22.50
2018-07-31T05:31:05.204Z,22.70
2018-07-31T05:33:33.411Z,22.80
2018-07-31T05:36:01.913Z,22.90
2018-07-31T05:38:30.209Z,22.90
2018-07-31T05:40:58.412Z,23.00
2018-07-31T05:43:26.890Z,23.00
2018-07-31T05:45:55.157Z,22.90
2018-07-31T05:48:23.361Z,22.80
2018-07-31T05:50:51.777Z,22.80
2018-07-31T05:53:19.982Z,23.00
2018-07-31T05:55:48.188Z,23.10
2018-07-31T05:58:16.402Z,23.30
2018-07-31T06:00:44.618Z,23.30
2018-07-31T06:03:12.801Z,23.40
2018-07-31T06:05:41.209Z,23.50
2018-07-31T06:08:09.422Z,23.60
2018-07-31T06:10:37.626Z,23.70
2018-07-31T06:13:05.817Z,23.90
2018-07-31T06:15:34.147Z,23.90
2018-07-31T06:18:02.373Z,24.00
2018-07-31T06:20:30.598Z,24.00
2018-07-31T06:22:59.080Z,24.00
2018-07-31T06:25:27.291Z,24.00
2018-07-31T06:27:55.661Z,23.90
2018-07-31T06:30:23.875Z,24.00
2018-07-31T06:35:20.269Z,24.00
2018-07-31T06:37:48.675Z,24.00
2018-07-31T06:40:16.845Z,24.00
2018-07-31T06:42:45.053Z,24.10
2018-07-31T06:45:13.285Z,24.20
2018-07-31T06:47:41.479Z,24.10
2018-07-31T06:50:09.727Z,24.20
2018-07-31T06:52:37.923Z,24.50
2018-07-31T06:55:06.178Z,24.70
2018-07-31T06:57:35.462Z,25.00
2018-07-31T07:00:03.766Z,25.10
2018-07-31T07:02:31.978Z,25.10
2018-07-31T07:05:00.496Z,25.20
2018-07-31T07:07:28.755Z,25.20
2018-07-31T07:09:57.126Z,25.20
2018-07-31T07:12:25.473Z,25.40
2018-07-31T07:14:53.805Z,25.60
2018-07-31T07:17:22.185Z,25.70
2018-07-31T07:19:50.378Z,25.70
2018-07-31T07:22:18.565Z,25.70
2018-07-31T07:24:46.805Z,25.70
2018-07-31T07:27:15.087Z,25.70
2018-07-31T07:29:43.469Z,25.90
2018-07-31T07:32:11.742Z,26.00
2018-07-31T07:34:40.285Z,26.20
2018-07-31T07:37:08.479Z,26.40
2018-07-31T07:39:36.725Z,26.60
2018-07-31T07:42:04.939Z,26.80
2018-07-31T07:44:33.428Z,27.00
2018-07-31T07:47:01.627Z,27.20
2018-07-31T07:49:29.844Z,27.40
2018-07-31T07:54:26.279Z,27.60
2018-07-31T07:56:54.702Z,27.50
2018-07-31T07:59:22.934Z,27.60
2018-07-31T08:01:51.174Z,27.60
2018-07-31T08:04:19.386Z,27.70
2018-07-31T08:06:47.609Z,27.80
2018-07-31T08:09:15.986Z,27.90
2018-07-31T08:11:44.178Z,28.00
2018-07-31T08:14:12.422Z,28.30
2018-07-31T08:16:40.649Z,28.30
2018-07-31T08:19:08.909Z,28.40
2018-07-31T08:21:37.133Z,28.50
2018-07-31T08:24:06.057Z,28.60
2018-07-31T08:26:34.489Z,28.70
2018-07-31T08:29:02.816Z,28.80
2018-07-31T08:31:31.037Z,28.90
2018-07-31T08:33:59.412Z,28.90
2018-07-31T08:36:28.066Z,29.00
2018-07-31T08:38:56.382Z,29.10
2018-07-31T08:41:24.974Z,29.30
2018-07-31T08:43:53.268Z,29.30
2018-07-31T08:46:21.480Z,29.30
2018-07-31T08:48:49.700Z,29.30
2018-07-31T08:53:46.083Z,29.50
2018-07-31T08:56:14.325Z,29.70
2018-07-31T09:00:12.081Z,29.70
2018-07-31T09:02:40.547Z,29.80
2018-07-31T09:05:08.863Z,29.90
2018-07-31T09:07:37.149Z,29.90
2018-07-31T09:10:05.609Z,30.00
2018-07-31T09:12:33.926Z,30.10
2018-07-31T09:15:02.211Z,30.10
2018-07-31T09:17:30.561Z,30.20
2018-07-31T09:22:27.150Z,30.20
2018-07-31T09:24:55.433Z,30.20
2018-07-31T09:27:23.723Z,30.30
2018-07-31T09:29:51.987Z,30.40
2018-07-31T09:32:24.489Z,30.40
2018-07-31T09:34:52.743Z,30.40
2018-07-31T09:37:20.953Z,30.60
2018-07-31T09:42:17.965Z,30.70
2018-07-31T09:44:46.177Z,30.60
2018-07-31T09:47:14.545Z,30.60
2018-07-31T09:49:42.741Z,30.70
2018-07-31T09:52:10.997Z,30.80
2018-07-31T09:54:39.210Z,30.90
2018-07-31T09:57:07.506Z,31.00
2018-07-31T09:59:35.781Z,31.10
2018-07-31T10:02:04.002Z,31.20
2018-07-31T10:04:32.313Z,31.30
2018-07-31T10:07:00.652Z,31.40
2018-07-31T10:09:29.073Z,31.40
2018-07-31T10:11:57.327Z,31.50
2018-07-31T10:14:25.648Z,31.60
2018-07-31T10:16:53.861Z,31.60
2018-07-31T10:19:22.093Z,31.60
2018-07-31T10:21:50.661Z,31.60
2018-07-31T10:24:18.922Z,31.80
2018-07-31T10:26:47.236Z,31.80
2018-07-31T10:29:15.456Z,31.90
2018-07-31T10:31:43.717Z,32.00
2018-07-31T10:34:11.982Z,32.10
2018-07-31T10:36:40.206Z,32.20
2018-07-31T10:39:08.692Z,32.20
2018-07-31T10:41:36.953Z,32.30
2018-07-31T10:44:05.189Z,32.30
2018-07-31T10:46:33.390Z,32.40
2018-07-31T10:49:01.709Z,32.50
2018-07-31T10:51:30.149Z,32.50
2018-07-31T10:53:58.549Z,32.60
2018-07-31T10:56:27.362Z,32.70
2018-07-31T10:58:55.615Z,32.80
2018-07-31T11:01:23.870Z,33.00
2018-07-31T11:03:52.114Z,33.30
2018-07-31T11:06:20.385Z,33.60
2018-07-31T11:11:17.128Z,34.20
2018-07-31T11:13:45.519Z,34.70
2018-07-31T11:16:13.721Z,35.40
2018-07-31T11:18:41.961Z,36.30
2018-07-31T11:21:10.173Z,37.40
2018-07-31T11:23:38.438Z,38.20
2018-07-31T11:26:06.841Z,38.60
2018-07-31T11:28:35.206Z,39.00
2018-07-31T11:31:04.739Z,39.50
2018-07-31T11:33:33.155Z,40.10
2018-07-31T11:36:01.831Z,41.00
2018-07-31T11:38:30.240Z,42.40
2018-07-31T11:40:58.660Z,43.60
2018-07-31T11:43:26.934Z,44.40
2018-07-31T11:50:51.444Z,44.30
2018-07-31T11:53:19.795Z,44.40
2018-07-31T11:55:48.521Z,44.80
2018-07-31T11:58:16.986Z,45.80
2018-07-31T12:00:45.361Z,47.10
2018-07-31T12:03:13.734Z,48.20
2018-07-31T12:05:42.094Z,49.30
2018-07-31T12:08:10.718Z,50.50
2018-07-31T12:13:07.027Z,52.40
2018-07-31T12:15:35.346Z,53.10
2018-07-31T12:18:03.755Z,53.60
2018-07-31T12:20:32.234Z,54.00
2018-07-31T12:23:00.560Z,53.80
2018-07-31T12:25:28.890Z,53.40
2018-07-31T12:27:57.410Z,53.70
2018-07-31T12:30:25.793Z,54.50
2018-07-31T12:32:54.137Z,55.10
2018-07-31T12:37:50.679Z,56.20
2018-07-31T12:40:19.055Z,56.40
2018-07-31T12:42:47.742Z,56.70
2018-07-31T12:45:16.023Z,56.90
2018-07-31T12:47:44.293Z,57.30
2018-07-31T12:50:12.606Z,57.70
2018-07-31T12:55:08.985Z,58.40
2018-07-31T13:00:05.438Z,58.90
2018-07-31T13:02:33.610Z,59.20
2018-07-31T13:05:01.965Z,59.30
2018-07-31T13:07:30.198Z,59.30
2018-07-31T13:09:58.480Z,58.70
2018-07-31T13:12:26.794Z,58.90
2018-07-31T13:14:55.168Z,58.50
2018-07-31T13:24:07.971Z,55.60
2018-07-31T13:26:36.245Z,53.60
2018-07-31T13:29:04.484Z,54.50
2018-07-31T13:31:32.781Z,55.30
2018-07-31T13:34:01.296Z,56.30
2018-07-31T13:36:29.534Z,56.90
2018-07-31T13:38:57.938Z,56.90
2018-07-31T13:41:26.173Z,57.10
2018-07-31T13:43:54.536Z,56.60
2018-07-31T13:46:22.757Z,56.60
2018-07-31T13:48:51.339Z,56.30
2018-07-31T13:51:19.565Z,54.90
2018-07-31T13:53:47.806Z,54.10
2018-07-31T13:56:16.050Z,54.30
2018-07-31T13:58:44.309Z,55.00
2018-07-31T14:01:12.702Z,56.00
2018-07-31T14:03:40.925Z,56.40
2018-07-31T14:06:09.366Z,55.20
2018-07-31T14:11:05.874Z,52.70
2018-07-31T14:13:34.155Z,52.10
2018-07-31T14:16:02.671Z,52.10
2018-07-31T14:18:30.909Z,53.00
2018-07-31T14:20:59.189Z,54.30
2018-07-31T14:23:27.508Z,55.70
2018-07-31T14:25:56.011Z,56.70
2018-07-31T14:28:24.249Z,57.60
2018-07-31T14:30:52.560Z,58.50
2018-07-31T14:33:20.725Z,59.00
2018-07-31T14:35:49.098Z,58.90
2018-07-31T14:38:17.314Z,59.10
2018-07-31T14:40:45.523Z,59.20
2018-07-31T14:43:13.755Z,59.40
2018-07-31T14:45:41.973Z,59.40
2018-07-31T14:48:10.473Z,59.10
2018-07-31T14:50:38.778Z,59.40
2018-07-31T14:53:07.462Z,59.20
2018-07-31T14:55:35.770Z,58.10
2018-07-31T14:58:04.065Z,55.70
2018-07-31T15:00:32.495Z,53.20
2018-07-31T15:03:00.909Z,51.20
2018-07-31T15:05:29.335Z,50.60
2018-07-31T15:07:57.618Z,49.40
2018-07-31T15:10:25.960Z,47.90
2018-07-31T15:15:22.438Z,45.10
2018-07-31T15:17:50.754Z,43.90
2018-07-31T15:20:19.107Z,43.00
2018-07-31T15:22:47.311Z,42.30
2018-07-31T15:25:15.646Z,42.20
2018-07-31T15:27:43.948Z,43.80
2018-07-31T15:30:12.314Z,46.40
2018-07-31T15:32:40.596Z,49.00
2018-07-31T15:35:08.889Z,51.20
2018-07-31T15:37:37.320Z,51.50
2018-07-31T15:40:05.754Z,52.30
2018-07-31T15:42:34.230Z,53.30
2018-07-31T15:45:02.515Z,54.20
2018-07-31T15:47:30.810Z,54.10
2018-07-31T15:49:59.266Z,54.40
2018-07-31T15:52:27.580Z,55.20
2018-07-31T15:54:55.900Z,56.10
2018-07-31T15:57:24.255Z,56.90
2018-07-31T15:59:52.719Z,57.10
2018-07-31T16:02:20.918Z,57.40
2018-07-31T16:04:49.287Z,57.80
2018-07-31T16:07:17.530Z,58.20
2018-07-31T16:09:45.783Z,58.90
2018-07-31T16:12:14.015Z,59.50
2018-07-31T16:14:42.237Z,59.90
2018-07-31T16:17:10.609Z,60.40
2018-07-31T16:19:38.834Z,60.50
2018-07-31T16:22:07.278Z,60.60
2018-07-31T16:24:35.510Z,60.70
2018-07-31T16:27:03.747Z,60.90
2018-07-31T16:32:00.783Z,60.60
2018-07-31T16:34:29.413Z,60.70
2018-07-31T16:36:57.667Z,60.60
2018-07-31T16:39:26.091Z,60.50
2018-07-31T16:41:54.405Z,60.00
2018-07-31T16:44:22.886Z,59.70
2018-07-31T16:46:51.128Z,59.50
2018-07-31T16:49:19.354Z,59.50
2018-07-31T16:51:47.610Z,58.60
2018-07-31T16:54:16.024Z,56.50
2018-07-31T16:56:44.255Z,53.30
2018-07-31T16:59:12.550Z,49.70
2018-07-31T17:01:40.777Z,46.90
2018-07-31T17:04:09.053Z,44.70
2018-07-31T17:06:37.566Z,43.10
2018-07-31T17:09:06.759Z,41.80
2018-07-31T17:11:35.226Z,40.80
2018-07-31T17:14:03.768Z,39.70
2018-07-31T17:16:32.361Z,38.80
2018-07-31T17:19:00.601Z,38.20
2018-07-31T17:21:28.840Z,37.60
2018-07-31T17:23:57.049Z,37.10
2018-07-31T17:26:25.279Z,36.60
2018-07-31T17:28:53.861Z,36.10
2018-07-31T17:31:22.142Z,35.80
2018-07-31T17:33:50.475Z,35.50
2018-07-31T17:36:18.996Z,35.30
2018-07-31T17:38:47.254Z,35.20
2018-07-31T17:41:15.457Z,35.00
2018-07-31T17:43:43.660Z,34.90
2018-07-31T17:46:12.080Z,34.70
2018-07-31T17:48:40.291Z,34.60
2018-07-31T17:51:08.684Z,34.50
2018-07-31T17:53:36.950Z,34.40
2018-07-31T17:56:05.262Z,34.30
2018-07-31T17:58:33.530Z,34.20
2018-07-31T18:01:01.755Z,34.10
2018-07-31T18:03:30.075Z,34.00
2018-07-31T18:05:58.222Z,33.80
2018-07-31T18:08:26.482Z,33.70
2018-07-31T18:10:54.655Z,33.60
2018-07-31T18:13:23.307Z,33.50
2018-07-31T18:15:51.529Z,33.40
2018-07-31T18:18:19.723Z,33.20
2018-07-31T18:20:47.918Z,33.20
2018-07-31T18:25:44.106Z,33.00
2018-07-31T18:28:12.326Z,32.80
2018-07-31T18:30:40.517Z,32.80
2018-07-31T18:35:37.310Z,32.60
2018-07-31T18:38:05.553Z,32.40
2018-07-31T18:40:33.938Z,32.30
2018-07-31T18:43:02.338Z,32.10
2018-07-31T18:45:30.525Z,32.10
2018-07-31T18:47:59.100Z,32.00
2018-07-31T18:50:27.290Z,31.90
2018-07-31T18:52:55.493Z,31.80
2018-07-31T18:55:23.749Z,31.70
2018-07-31T18:57:51.917Z,31.60
2018-07-31T19:00:20.112Z,31.50
2018-07-31T19:02:48.551Z,31.40
2018-07-31T19:05:16.929Z,31.30
2018-07-31T19:07:45.109Z,31.30
2018-07-31T19:10:13.363Z,31.20
2018-07-31T19:12:41.610Z,31.10
2018-07-31T19:15:10.689Z,31.10
2018-07-31T19:17:39.309Z,30.90
2018-07-31T19:20:07.598Z,30.90
2018-07-31T19:22:36.194Z,30.80
2018-07-31T19:25:04.473Z,30.70
2018-07-31T19:27:32.683Z,30.60
2018-07-31T19:30:01.030Z,30.50
2018-07-31T19:32:29.402Z,30.40
2018-07-31T19:34:57.620Z,30.30
2018-07-31T19:37:25.857Z,30.10
2018-07-31T19:39:54.846Z,30.00
2018-07-31T19:42:23.038Z,29.90
2018-07-31T19:44:51.291Z,29.90
2018-07-31T19:47:19.703Z,29.90
2018-07-31T19:49:47.969Z,29.90
2018-07-31T19:52:16.166Z,29.80
2018-07-31T19:54:44.402Z,29.80
2018-07-31T19:57:12.621Z,29.80
2018-07-31T19:59:40.853Z,29.80
2018-07-31T20:02:09.372Z,29.70
2018-07-31T20:04:37.573Z,29.70
2018-07-31T20:07:05.825Z,29.70
2018-07-31T20:09:34.063Z,29.60
2018-07-31T20:12:02.338Z,29.50
2018-07-31T20:14:30.546Z,29.50
2018-07-31T20:16:58.991Z,29.40
2018-07-31T20:19:27.181Z,29.30
2018-07-31T20:21:55.394Z,29.20
2018-07-31T20:26:51.815Z,29.10
2018-07-31T20:29:20.010Z,29.00
2018-07-31T20:31:48.362Z,28.90
2018-07-31T20:34:16.549Z,28.90
2018-07-31T20:36:44.805Z,28.90
2018-07-31T20:39:13.010Z,28.80
2018-07-31T20:41:41.278Z,28.70
2018-07-31T20:44:10.236Z,28.60
2018-07-31T20:46:38.853Z,28.60
2018-07-31T20:49:07.094Z,28.40
2018-07-31T20:51:35.292Z,28.40
2018-07-31T20:54:03.593Z,28.40
2018-07-31T20:56:32.117Z,28.30
2018-07-31T20:59:00.289Z,28.20
2018-07-31T21:01:28.509Z,28.10
2018-07-31T21:03:56.729Z,28.10
2018-07-31T21:06:24.956Z,28.00
2018-07-31T21:08:53.693Z,28.00
2018-07-31T21:13:49.830Z,28.00
2018-07-31T21:16:18.045Z,28.00
2018-07-31T21:18:46.301Z,27.90
2018-07-31T21:21:14.473Z,27.90
2018-07-31T21:23:42.685Z,27.80
2018-07-31T21:26:10.881Z,27.70
2018-07-31T21:28:39.109Z,27.70
2018-07-31T21:31:07.597Z,27.60
2018-07-31T21:33:35.793Z,27.50
2018-07-31T21:36:04.020Z,27.40
2018-07-31T21:38:32.218Z,27.40
2018-07-31T21:41:00.402Z,27.30
2018-07-31T21:43:28.600Z,27.30
2018-07-31T21:45:56.819Z,27.20
2018-07-31T21:48:25.039Z,27.20
2018-07-31T21:50:53.253Z,27.10
2018-07-31T21:53:22.242Z,27.00
2018-07-31T21:55:50.431Z,27.00
2018-07-31T21:58:18.658Z,26.90
2018-07-31T22:00:52.278Z,26.80
2018-07-31T22:03:20.532Z,26.80
2018-07-31T22:05:48.762Z,26.80
2018-07-31T22:08:16.923Z,26.70
2018-07-31T22:10:45.136Z,26.70
2018-07-31T22:13:13.342Z,26.70
2018-07-31T22:15:42.082Z,26.70
2018-07-31T22:18:10.427Z,26.60
2018-07-31T22:20:38.638Z,26.60
2018-07-31T22:23:06.843Z,26.50
2018-07-31T22:25:35.054Z,26.40
2018-07-31T22:28:03.266Z,26.40
2018-07-31T22:30:31.468Z,26.40
2018-07-31T22:32:59.698Z,26.30
2018-07-31T22:35:27.917Z,26.20
2018-07-31T22:37:56.858Z,26.20
2018-07-31T22:40:25.067Z,26.20
2018-07-31T22:42:53.478Z,26.20
2018-07-31T22:45:21.666Z,26.20
2018-07-31T22:47:49.949Z,26.20
2018-07-31T22:50:18.060Z,26.20
2018-07-31T22:52:46.269Z,26.10
2018-07-31T22:55:14.455Z,26.00
2018-07-31T22:57:42.656Z,26.00
2018-07-31T23:00:11.075Z,25.90
2018-07-31T23:02:40.721Z,25.80
2018-07-31T23:05:10.197Z,25.60
2018-07-31T23:07:38.407Z,25.50
2018-07-31T23:10:06.733Z,25.40
2018-07-31T23:12:34.920Z,25.30
2018-07-31T23:15:03.789Z,25.20
2018-07-31T23:17:32.185Z,25.20
2018-07-31T23:20:02.834Z,25.10
2018-07-31T23:22:44.413Z,25.10
2018-07-31T23:25:12.617Z,25.00
2018-07-31T23:27:40.837Z,25.00
2018-07-31T23:30:09.581Z,25.00
2018-07-31T23:32:38.496Z,25.00
2018-07-31T23:35:06.927Z,25.00
2018-07-31T23:37:35.147Z,25.00
2018-07-31T23:40:04.102Z,25.00
2018-07-31T23:45:00.785Z,24.90
2018-07-31T23:47:29.833Z,24.90
2018-07-31T23:49:58.942Z,24.80
2018-07-31T23:52:27.259Z,24.80
2018-07-31T23:54:55.499Z,24.80
2018-07-31T23:57:23.707Z,24.70
2018-07-31T23:59:52.010Z,24.70
